createdAt,value
2022-11-10T00:01:09.924Z,19.48
2022-11-10T00:03:38.981Z,15.55
2022-11-10T00:06:08.370Z,13.85
2022-11-10T00:08:35.448Z,16.27
2022-11-10T00:11:07.160Z,15.45
2022-11-10T00:13:58.337Z,16.55
2022-11-10T00:16:43.927Z,14.65
2022-11-10T00:19:10.936Z,14.45
2022-11-10T00:21:38.096Z,13.85
2022-11-10T00:24:05.647Z,15.77
2022-11-10T00:26:32.769Z,16.05
2022-11-10T00:28:59.742Z,16.98
2022-11-10T00:31:28.847Z,17.55
2022-11-10T00:33:56.278Z,16.08
2022-11-10T00:36:24.015Z,16.65
2022-11-10T00:38:51.787Z,16.52
2022-11-10T00:41:18.763Z,20.92
2022-11-10T00:43:45.847Z,19.50
2022-11-10T00:46:13.446Z,20.92
2022-11-10T00:48:40.663Z,16.20
2022-11-10T00:51:08.955Z,19.52
2022-11-10T00:53:35.895Z,17.92
2022-11-10T00:56:02.877Z,16.42
2022-11-10T00:58:29.851Z,18.60
2022-11-10T01:01:04.414Z,19.50
2022-11-10T01:03:31.862Z,15.00
2022-11-10T01:05:58.876Z,18.92
2022-11-10T01:08:25.876Z,21.27
2022-11-10T01:10:52.858Z,18.85
2022-11-10T01:13:20.448Z,18.48
2022-11-10T01:15:47.681Z,16.92
2022-11-10T01:18:14.682Z,17.90
2022-11-10T01:20:41.738Z,14.85
2022-11-10T01:23:10.078Z,18.75
2022-11-10T01:25:37.512Z,17.50
2022-11-10T01:28:04.521Z,19.50
2022-11-10T01:30:32.039Z,17.33
2022-11-10T01:32:59.054Z,18.92
2022-11-10T01:35:25.961Z,19.98
2022-11-10T01:37:53.494Z,20.17
2022-11-10T01:40:21.266Z,20.13
2022-11-10T01:42:54.115Z,20.40
2022-11-10T01:45:35.040Z,19.90
2022-11-10T01:48:05.781Z,19.20
2022-11-10T01:50:37.698Z,18.80
2022-11-10T01:53:08.354Z,18.77
2022-11-10T01:55:39.207Z,21.60
2022-11-10T01:58:06.703Z,23.85
2022-11-10T02:00:33.773Z,18.00
2022-11-10T02:03:29.338Z,20.45
2022-11-10T02:05:56.589Z,21.50
2022-11-10T02:08:26.130Z,20.30
2022-11-10T02:10:53.134Z,25.55
2022-11-10T02:13:20.331Z,21.15
2022-11-10T02:15:47.550Z,20.92
2022-11-10T02:18:14.545Z,23.08
2022-11-10T02:20:45.333Z,24.75
2022-11-10T02:23:35.560Z,20.25
2022-11-10T02:26:05.597Z,18.52
2022-11-10T02:28:37.623Z,23.13
2022-11-10T02:31:06.288Z,24.75
2022-11-10T02:33:33.277Z,20.75
2022-11-10T02:36:00.253Z,22.73
2022-11-10T02:38:27.315Z,24.40
2022-11-10T02:40:54.309Z,24.25
2022-11-10T02:43:21.899Z,21.40
2022-11-10T02:45:49.233Z,27.88
2022-11-10T02:48:16.713Z,22.20
2022-11-10T02:50:44.156Z,23.23
2022-11-10T02:53:11.200Z,20.70
2022-11-10T02:55:38.865Z,23.08
2022-11-10T02:58:06.118Z,23.83
2022-11-10T03:00:33.442Z,22.80
2022-11-10T03:03:02.225Z,23.75
2022-11-10T03:05:30.579Z,22.15
2022-11-10T03:08:01.435Z,23.95
2022-11-10T03:10:29.869Z,25.23
2022-11-10T03:12:59.233Z,24.77
2022-11-10T03:15:26.383Z,22.88
2022-11-10T03:17:53.537Z,23.23
2022-11-10T03:20:21.005Z,29.90
2022-11-10T03:22:48.036Z,21.98
2022-11-10T03:25:15.636Z,24.52
2022-11-10T03:27:42.603Z,21.42
2022-11-10T03:30:10.429Z,25.75
2022-11-10T03:32:37.599Z,24.90
2022-11-10T03:35:04.809Z,21.83
2022-11-10T03:37:31.784Z,23.17
2022-11-10T03:39:58.802Z,24.38
2022-11-10T03:42:25.918Z,23.90
2022-11-10T03:44:52.925Z,23.95
2022-11-10T03:47:20.886Z,21.50
2022-11-10T03:49:47.838Z,22.58
2022-11-10T03:52:15.332Z,26.02
2022-11-10T03:54:42.533Z,22.45
2022-11-10T03:57:09.546Z,22.38
2022-11-10T03:59:36.612Z,22.73
2022-11-10T04:02:03.793Z,25.00
2022-11-10T04:04:49.804Z,20.55
2022-11-10T04:07:35.240Z,23.80
2022-11-10T04:10:03.304Z,22.23
2022-11-10T04:12:48.756Z,26.40
2022-11-10T04:15:34.148Z,17.92
2022-11-10T04:18:19.760Z,23.38
2022-11-10T04:20:47.682Z,22.13
2022-11-10T04:23:27.699Z,20.70
2022-11-10T04:26:15.786Z,21.15
2022-11-10T04:28:43.200Z,20.35
2022-11-10T04:31:10.764Z,20.95
2022-11-10T04:33:38.919Z,20.17
2022-11-10T04:36:07.691Z,15.27
2022-11-10T04:38:34.815Z,19.35
2022-11-10T04:41:02.485Z,18.33
2022-11-10T04:43:29.756Z,25.05
2022-11-10T04:45:57.816Z,22.42
2022-11-10T04:48:26.305Z,18.83
2022-11-10T04:50:54.054Z,16.88
2022-11-10T04:53:21.497Z,19.77
2022-11-10T04:55:48.962Z,13.80
2022-11-10T04:58:15.970Z,19.17
2022-11-10T05:00:43.720Z,21.48
2022-11-10T05:03:12.189Z,18.33
2022-11-10T05:05:40.170Z,16.25
2022-11-10T05:08:08.349Z,18.10
2022-11-10T05:10:37.129Z,14.95
2022-11-10T05:13:06.340Z,19.05
2022-11-10T05:15:34.162Z,16.05
2022-11-10T05:18:01.441Z,16.23
2022-11-10T05:20:28.668Z,16.35
2022-11-10T05:23:14.294Z,19.15
2022-11-10T05:25:43.248Z,18.83
2022-11-10T05:28:12.205Z,15.93
2022-11-10T05:30:40.371Z,20.10
2022-11-10T05:33:07.898Z,15.23
2022-11-10T05:35:35.728Z,20.08
2022-11-10T05:38:03.137Z,15.25
2022-11-10T05:40:30.360Z,19.67
2022-11-10T05:42:58.038Z,20.13
2022-11-10T05:45:27.869Z,16.80
2022-11-10T05:47:55.650Z,15.88
2022-11-10T05:50:24.360Z,13.43
2022-11-10T05:52:55.654Z,15.48
2022-11-10T05:55:26.374Z,15.93
2022-11-10T05:57:55.203Z,16.25
2022-11-10T06:00:25.035Z,16.02
2022-11-10T06:03:00.929Z,16.67
2022-11-10T06:05:31.348Z,15.73
2022-11-10T06:07:59.740Z,17.15
2022-11-10T06:10:27.028Z,16.40
2022-11-10T06:12:54.266Z,19.48
2022-11-10T06:15:21.945Z,23.17
2022-11-10T06:17:49.629Z,20.75
2022-11-10T06:20:17.764Z,25.92
2022-11-10T06:22:58.957Z,20.85
2022-11-10T06:25:26.366Z,21.20
2022-11-10T06:27:53.859Z,18.98
2022-11-10T06:30:21.282Z,23.10
2022-11-10T06:32:48.390Z,24.80
2022-11-10T06:35:15.836Z,19.10
2022-11-10T06:37:42.948Z,19.13
2022-11-10T06:40:11.607Z,20.88
2022-11-10T06:42:38.720Z,20.23
2022-11-10T06:45:06.149Z,18.30
2022-11-10T06:47:33.167Z,18.40
2022-11-10T06:50:00.242Z,19.08
2022-11-10T06:52:27.223Z,20.42
2022-11-10T06:54:54.158Z,19.08
2022-11-10T06:57:21.122Z,19.20
2022-11-10T06:59:48.104Z,19.17
2022-11-10T07:02:15.742Z,17.77
2022-11-10T07:04:42.970Z,16.27
2022-11-10T07:07:11.355Z,15.77
2022-11-10T07:09:38.426Z,18.23
2022-11-10T07:12:05.788Z,13.68
2022-11-10T07:14:32.752Z,15.18
2022-11-10T07:16:59.898Z,14.88
2022-11-10T07:19:26.903Z,13.23
2022-11-10T07:21:54.071Z,12.82
2022-11-10T07:24:21.038Z,15.02
2022-11-10T07:26:48.030Z,12.18
2022-11-10T07:29:15.257Z,12.05
2022-11-10T07:31:42.253Z,13.52
2022-11-10T07:34:11.941Z,14.13
2022-11-10T07:36:38.925Z,14.35
2022-11-10T07:39:06.366Z,11.20
2022-11-10T07:41:33.702Z,11.68
2022-11-10T07:44:00.702Z,12.05
2022-11-10T07:46:27.665Z,13.05
2022-11-10T07:48:54.675Z,9.80
2022-11-10T07:51:21.739Z,12.68
2022-11-10T07:53:48.772Z,12.05
2022-11-10T07:56:15.901Z,11.77
2022-11-10T07:58:42.941Z,11.82
2022-11-10T08:01:10.752Z,13.10
2022-11-10T08:03:37.722Z,11.65
2022-11-10T08:06:04.878Z,11.38
2022-11-10T08:08:31.851Z,11.55
2022-11-10T08:10:59.045Z,12.23
2022-11-10T08:13:26.089Z,12.95
2022-11-10T08:15:53.060Z,10.80
2022-11-10T08:18:22.967Z,9.65
2022-11-10T08:20:50.106Z,10.40
2022-11-10T08:23:18.054Z,12.25
2022-11-10T08:25:46.899Z,13.52
2022-11-10T08:28:19.762Z,8.63
2022-11-10T08:30:48.117Z,10.35
2022-11-10T08:33:18.310Z,11.32
2022-11-10T08:35:50.444Z,11.90
2022-11-10T08:38:20.537Z,9.82
2022-11-10T08:40:48.265Z,10.60
2022-11-10T08:43:17.227Z,10.27
2022-11-10T08:45:45.309Z,13.15
2022-11-10T08:48:20.588Z,10.80
2022-11-10T08:50:49.914Z,11.30
2022-11-10T08:53:22.598Z,10.73
2022-11-10T08:55:51.082Z,9.05
2022-11-10T08:58:21.616Z,10.75
2022-11-10T09:00:49.345Z,9.43
2022-11-10T09:03:21.118Z,10.95
2022-11-10T09:05:55.241Z,11.02
2022-11-10T09:08:24.918Z,10.85
2022-11-10T09:10:51.938Z,8.50
2022-11-10T09:13:27.901Z,11.63
2022-11-10T09:16:01.136Z,10.00
2022-11-10T09:18:28.223Z,11.18
2022-11-10T09:20:55.355Z,11.57
2022-11-10T09:23:24.939Z,11.25
2022-11-10T09:25:54.683Z,10.43
2022-11-10T09:28:22.724Z,9.93
2022-11-10T09:30:51.833Z,9.65
2022-11-10T09:33:19.607Z,9.38
2022-11-10T09:35:46.888Z,10.90
2022-11-10T09:38:14.274Z,10.93
2022-11-10T09:41:04.630Z,8.88
2022-11-10T09:43:43.413Z,9.73
2022-11-10T09:46:25.009Z,12.18
2022-11-10T09:48:58.538Z,10.38
2022-11-10T09:51:29.655Z,13.50
2022-11-10T09:53:59.392Z,10.70
2022-11-10T09:56:36.048Z,13.98
2022-11-10T09:59:30.690Z,12.85
2022-11-10T10:02:32.300Z,12.32
2022-11-10T10:05:24.142Z,12.20
2022-11-10T10:08:06.609Z,15.45
2022-11-10T10:10:39.503Z,15.40
2022-11-10T10:13:23.538Z,15.18
2022-11-10T10:15:59.652Z,13.35
2022-11-10T10:18:38.748Z,20.02
2022-11-10T10:21:20.819Z,14.60
2022-11-10T10:24:09.519Z,14.02
2022-11-10T10:26:50.911Z,13.85
2022-11-10T10:29:24.439Z,13.73
2022-11-10T10:31:53.121Z,13.38
2022-11-10T10:34:27.505Z,13.88
2022-11-10T10:36:54.494Z,15.02
2022-11-10T10:39:24.460Z,15.90
2022-11-10T10:41:51.418Z,14.63
2022-11-10T10:44:20.142Z,14.77
2022-11-10T10:46:56.155Z,13.45
2022-11-10T10:49:29.641Z,13.50
2022-11-10T10:52:12.799Z,13.45
2022-11-10T10:54:40.576Z,11.25
2022-11-10T10:57:31.152Z,16.55
2022-11-10T11:00:22.712Z,14.23
2022-11-10T11:03:11.675Z,13.95
2022-11-10T11:05:38.700Z,12.43
2022-11-10T11:08:06.042Z,12.63
2022-11-10T11:10:35.732Z,13.57
2022-11-10T11:13:23.216Z,16.52
2022-11-10T11:16:04.305Z,13.20
2022-11-10T11:18:33.102Z,12.75
2022-11-10T11:21:08.226Z,13.05
2022-11-10T11:23:55.428Z,14.60
2022-11-10T11:26:49.384Z,11.60
2022-11-10T11:29:25.209Z,14.20
2022-11-10T11:32:07.315Z,14.95
2022-11-10T11:34:37.502Z,14.60
2022-11-10T11:37:20.024Z,12.43
2022-11-10T11:40:24.273Z,13.82
2022-11-10T11:43:23.614Z,14.02
2022-11-10T11:46:15.749Z,14.65
2022-11-10T11:48:45.762Z,13.32
2022-11-10T11:51:30.630Z,10.05
2022-11-10T11:54:23.463Z,11.15
2022-11-10T11:56:53.658Z,11.50
2022-11-10T11:59:52.854Z,13.20
2022-11-10T12:02:29.068Z,14.25
2022-11-10T12:05:18.046Z,8.90
2022-11-10T12:08:06.891Z,11.18
2022-11-10T12:10:46.281Z,9.27
2022-11-10T12:13:44.194Z,12.27
2022-11-10T12:16:20.207Z,14.63
2022-11-10T12:19:03.803Z,8.15
2022-11-10T12:21:36.507Z,10.13
2022-11-10T12:24:10.675Z,9.57
2022-11-10T12:26:58.777Z,9.88
2022-11-10T12:29:41.589Z,9.60
2022-11-10T12:32:35.147Z,10.60
2022-11-10T12:35:22.640Z,11.40
2022-11-10T12:38:02.255Z,9.48
2022-11-10T12:40:41.871Z,10.35
2022-11-10T12:43:39.277Z,12.52
2022-11-10T12:46:11.458Z,10.15
2022-11-10T12:49:07.568Z,10.32
2022-11-10T12:51:53.746Z,12.15
2022-11-10T12:54:23.700Z,14.65
2022-11-10T12:57:07.201Z,9.25
2022-11-10T12:59:40.814Z,11.07
2022-11-10T13:02:32.685Z,9.85
2022-11-10T13:05:14.881Z,11.27
2022-11-10T13:07:49.578Z,12.60
2022-11-10T13:10:19.642Z,11.73
2022-11-10T13:13:16.596Z,12.70
2022-11-10T13:15:43.601Z,14.00
2022-11-10T13:18:11.810Z,11.90
2022-11-10T13:20:42.116Z,11.52
2022-11-10T13:23:31.253Z,12.45
2022-11-10T13:26:39.206Z,11.18
2022-11-10T13:29:37.829Z,12.18
2022-11-10T13:32:07.837Z,12.65
2022-11-10T13:34:37.101Z,14.25
2022-11-10T13:37:29.946Z,13.98
2022-11-10T13:40:34.879Z,13.85
2022-11-10T13:43:01.850Z,11.73
2022-11-10T13:45:41.291Z,14.50
2022-11-10T13:48:29.252Z,14.00
2022-11-10T13:51:25.501Z,13.05
2022-11-10T13:54:13.004Z,13.93
2022-11-10T13:56:48.747Z,11.73
2022-11-10T13:59:19.706Z,13.52
2022-11-10T14:01:47.852Z,13.98
2022-11-10T14:04:36.002Z,13.55
2022-11-10T14:07:06.008Z,15.30
2022-11-10T14:09:40.103Z,12.57
2022-11-10T14:12:30.787Z,13.88
2022-11-10T14:15:21.791Z,14.50
2022-11-10T14:17:55.429Z,13.52
2022-11-10T14:20:31.765Z,12.85
2022-11-10T14:23:00.813Z,17.05
2022-11-10T14:25:37.006Z,13.65
2022-11-10T14:28:24.304Z,13.35
2022-11-10T14:30:56.732Z,12.77
2022-11-10T14:33:28.072Z,10.95
2022-11-10T14:36:01.764Z,13.55
2022-11-10T14:38:34.089Z,12.00
2022-11-10T14:41:03.491Z,11.48
2022-11-10T14:43:31.898Z,17.33
2022-11-10T14:45:59.715Z,12.70
2022-11-10T14:48:32.970Z,12.93
2022-11-10T14:51:19.491Z,14.23
2022-11-10T14:53:49.769Z,13.60
2022-11-10T14:56:24.367Z,14.90
2022-11-10T14:58:52.157Z,13.75
2022-11-10T15:01:34.031Z,12.15
2022-11-10T15:04:06.791Z,12.40
2022-11-10T15:06:35.181Z,11.60
2022-11-10T15:09:29.080Z,13.07
2022-11-10T15:12:26.093Z,22.27
2022-11-10T15:15:00.989Z,12.05
2022-11-10T15:17:48.959Z,11.52
2022-11-10T15:20:36.542Z,11.40
2022-11-10T15:23:21.763Z,14.75
2022-11-10T15:25:53.135Z,11.65
2022-11-10T15:28:31.078Z,13.20
2022-11-10T15:31:00.928Z,14.27
2022-11-10T15:33:32.288Z,11.57
2022-11-10T15:36:17.654Z,9.02
2022-11-10T15:38:44.830Z,11.02
2022-11-10T15:41:16.196Z,12.77
2022-11-10T15:43:43.229Z,13.27
2022-11-10T15:46:18.182Z,15.93
2022-11-10T15:48:48.946Z,11.43
2022-11-10T15:51:25.644Z,12.02
2022-11-10T15:53:54.477Z,11.88
2022-11-10T15:56:24.440Z,13.77
2022-11-10T15:58:57.843Z,16.67
2022-11-10T16:01:28.057Z,14.18
2022-11-10T16:03:55.695Z,11.48
2022-11-10T16:06:22.756Z,14.00
2022-11-10T16:08:49.741Z,13.23
2022-11-10T16:11:21.893Z,11.50
2022-11-10T16:13:50.560Z,9.80
2022-11-10T16:16:19.469Z,13.80
2022-11-10T16:18:47.187Z,12.32
2022-11-10T16:21:16.822Z,9.73
2022-11-10T16:23:44.000Z,11.30
2022-11-10T16:26:15.524Z,11.98
2022-11-10T16:28:44.401Z,12.13
2022-11-10T16:31:12.146Z,11.40
2022-11-10T16:33:39.809Z,14.68
2022-11-10T16:36:15.162Z,11.27
2022-11-10T16:38:42.254Z,12.63
2022-11-10T16:41:14.785Z,12.98
2022-11-10T16:43:41.921Z,11.52
2022-11-10T16:46:24.655Z,11.13
2022-11-10T16:48:56.776Z,15.18
2022-11-10T16:51:33.986Z,14.30
2022-11-10T16:54:01.189Z,14.00
2022-11-10T16:56:28.196Z,12.48
2022-11-10T16:58:55.297Z,14.50
2022-11-10T17:01:34.847Z,14.30
2022-11-10T17:04:10.736Z,13.65
2022-11-10T17:06:38.178Z,20.42
2022-11-10T17:09:21.952Z,18.10
2022-11-10T17:11:49.833Z,15.10
2022-11-10T17:14:18.165Z,14.82
2022-11-10T17:16:46.839Z,15.18
2022-11-10T17:19:21.904Z,14.27
2022-11-10T17:21:50.821Z,15.50
2022-11-10T17:24:19.486Z,21.02
2022-11-10T17:26:47.538Z,22.25
2022-11-10T17:29:22.619Z,17.08
2022-11-10T17:31:53.078Z,20.15
2022-11-10T17:34:20.274Z,23.00
2022-11-10T17:36:50.179Z,19.83
2022-11-10T17:39:18.074Z,19.13
2022-11-10T17:41:45.504Z,24.08
2022-11-10T17:44:19.586Z,37.30
2022-11-10T17:46:46.865Z,20.15
2022-11-10T17:49:14.122Z,16.52
2022-11-10T17:51:45.325Z,17.10
2022-11-10T17:54:16.055Z,15.32
2022-11-10T17:56:43.516Z,18.90
2022-11-10T17:59:10.719Z,15.82
2022-11-10T18:01:39.935Z,15.80
2022-11-10T18:04:07.207Z,13.90
2022-11-10T18:06:34.749Z,18.50
2022-11-10T18:09:02.390Z,15.82
2022-11-10T18:11:29.822Z,38.22
2022-11-10T18:13:57.012Z,45.08
2022-11-10T18:16:25.518Z,18.55
2022-11-10T18:18:52.730Z,19.60
2022-11-10T18:21:20.176Z,14.02
2022-11-10T18:23:47.420Z,33.63
2022-11-10T18:26:14.945Z,20.52
2022-11-10T18:28:44.201Z,17.05
2022-11-10T18:31:13.764Z,18.08
2022-11-10T18:33:42.828Z,20.73
2022-11-10T18:36:10.787Z,17.02
2022-11-10T18:38:42.564Z,19.88
2022-11-10T18:41:29.727Z,15.07
2022-11-10T18:43:57.886Z,17.10
2022-11-10T18:46:25.391Z,24.08
2022-11-10T18:48:53.024Z,19.05
2022-11-10T18:51:20.664Z,28.58
2022-11-10T18:53:48.495Z,16.35
2022-11-10T18:56:16.253Z,14.90
2022-11-10T18:58:44.693Z,14.73
2022-11-10T19:01:12.608Z,17.60
2022-11-10T19:03:40.401Z,14.80
2022-11-10T19:06:08.544Z,14.23
2022-11-10T19:08:38.390Z,16.95
2022-11-10T19:11:14.997Z,17.55
2022-11-10T19:13:43.470Z,21.60
2022-11-10T19:16:13.846Z,18.33
2022-11-10T19:18:42.110Z,27.20
2022-11-10T19:21:13.307Z,33.55
2022-11-10T19:23:41.094Z,25.35
2022-11-10T19:26:19.429Z,22.63
2022-11-10T19:28:49.985Z,22.80
2022-11-10T19:31:20.244Z,21.02
2022-11-10T19:33:48.566Z,21.40
2022-11-10T19:36:25.469Z,18.08
2022-11-10T19:38:57.226Z,19.35
2022-11-10T19:41:28.170Z,20.77
2022-11-10T19:43:58.809Z,19.85
2022-11-10T19:46:28.710Z,37.63
2022-11-10T19:48:58.251Z,17.67
2022-11-10T19:51:26.410Z,22.55
2022-11-10T19:54:02.350Z,16.85
2022-11-10T19:56:32.257Z,20.08
2022-11-10T19:59:01.188Z,24.48
2022-11-10T20:01:29.805Z,17.92
2022-11-10T20:03:59.982Z,22.98
2022-11-10T20:06:27.856Z,26.55
2022-11-10T20:08:55.927Z,21.83
2022-11-10T20:11:26.602Z,24.33
2022-11-10T20:13:56.998Z,23.50
2022-11-10T20:16:24.228Z,24.40
2022-11-10T20:18:51.433Z,21.10
2022-11-10T20:21:23.333Z,24.23
2022-11-10T20:23:56.064Z,23.98
2022-11-10T20:26:24.560Z,19.33
2022-11-10T20:28:52.509Z,19.65
2022-11-10T20:31:24.500Z,25.13
2022-11-10T20:33:55.733Z,25.13
2022-11-10T20:36:27.415Z,19.63
2022-11-10T20:39:00.151Z,19.45
2022-11-10T20:41:30.167Z,24.65
2022-11-10T20:43:58.216Z,21.15
2022-11-10T20:46:53.877Z,29.45
2022-11-10T20:49:13.010Z,33.38
2022-11-10T20:51:41.288Z,36.35
2022-11-10T20:54:12.204Z,53.25
2022-11-10T20:56:39.704Z,44.60
2022-11-10T20:59:06.904Z,66.72
2022-11-10T21:01:34.588Z,57.97
2022-11-10T21:04:06.418Z,61.67
2022-11-10T21:06:34.201Z,46.22
2022-11-10T21:09:01.839Z,32.25
2022-11-10T21:11:52.238Z,29.40
2022-11-10T21:14:20.705Z,29.05
2022-11-10T21:16:48.094Z,18.80
2022-11-10T21:19:15.610Z,20.73
2022-11-10T21:21:43.285Z,22.50
2022-11-10T21:24:11.023Z,18.52
2022-11-10T21:26:38.239Z,19.33
2022-11-10T21:29:08.180Z,18.13
2022-11-10T21:31:38.892Z,17.38
2022-11-10T21:34:07.623Z,21.40
2022-11-10T21:36:35.038Z,23.90
2022-11-10T21:39:02.010Z,19.17
2022-11-10T21:41:29.015Z,22.13
2022-11-10T21:43:55.930Z,18.92
2022-11-10T21:46:22.957Z,20.60
2022-11-10T21:48:50.847Z,19.55
2022-11-10T21:51:19.935Z,25.27
2022-11-10T21:53:47.417Z,20.73
2022-11-10T21:56:14.571Z,30.73
2022-11-10T21:58:41.583Z,22.75
2022-11-10T22:01:13.295Z,22.15
2022-11-10T22:03:40.944Z,18.42
2022-11-10T22:06:10.919Z,18.50
2022-11-10T22:08:39.478Z,21.00
2022-11-10T22:11:31.872Z,16.77
2022-11-10T22:14:17.597Z,19.70
2022-11-10T22:17:07.779Z,18.17
2022-11-10T22:19:36.295Z,24.63
2022-11-10T22:22:04.430Z,18.88
2022-11-10T22:24:31.961Z,18.75
2022-11-10T22:27:01.497Z,21.08
2022-11-10T22:29:32.175Z,22.55
2022-11-10T22:32:00.380Z,18.98
2022-11-10T22:34:27.539Z,19.60
2022-11-10T22:37:00.169Z,21.52
2022-11-10T22:39:45.974Z,18.80
2022-11-10T22:42:31.534Z,21.55
2022-11-10T22:44:58.897Z,21.25
2022-11-10T22:47:26.052Z,24.05
2022-11-10T22:49:53.066Z,21.10
2022-11-10T22:52:20.130Z,19.65
2022-11-10T22:54:47.104Z,21.92
2022-11-10T22:57:14.146Z,19.20
2022-11-10T22:59:41.144Z,20.55
2022-11-10T23:02:08.226Z,20.58
2022-11-10T23:04:35.452Z,29.40
2022-11-10T23:07:02.500Z,19.75
2022-11-10T23:09:29.712Z,18.83
2022-11-10T23:11:56.752Z,19.98
2022-11-10T23:14:24.653Z,24.40
2022-11-10T23:16:51.635Z,22.38
2022-11-10T23:19:18.710Z,22.30
2022-11-10T23:21:45.717Z,20.30
2022-11-10T23:24:13.875Z,17.85
2022-11-10T23:26:40.890Z,25.92
2022-11-10T23:29:07.921Z,20.77
2022-11-10T23:31:35.167Z,21.45
2022-11-10T23:34:02.158Z,19.63
2022-11-10T23:36:29.173Z,22.40
2022-11-10T23:38:56.188Z,16.73
2022-11-10T23:41:26.118Z,19.23
2022-11-10T23:43:54.043Z,17.65
2022-11-10T23:46:21.021Z,20.85
2022-11-10T23:48:48.136Z,18.77
2022-11-10T23:51:15.681Z,22.60
2022-11-10T23:53:42.806Z,20.23
2022-11-10T23:56:13.475Z,26.15
2022-11-10T23:58:41.265Z,19.00
